Time;durP1;ratioP1;P1;durP2;ratioP2;P2;SDS_P1;SDS_P2;PMS_P1;PMS_P2;Temp;Humidity;BMP_temperature;BMP_pressure;BME280_temperature;BME280_humidity;BME280_pressure;Samples;Min_cycle;Max_cycle;Signal;HPM_P1;HPM_P2
2023/08/22 00:00:15;;;;;;;11.88;7.55;;;;;;;21.90;76.26;94918.69;4988517;28;20201;-78
2023/08/22 00:02:42;;;;;;;14.57;7.45;;;;;;;21.97;75.89;94913.97;4988745;28;20555;-77
2023/08/22 00:05:10;;;;;;;10.98;8.10;;;;;;;21.97;75.47;94913.97;4978215;28;20302;-78
2023/08/22 00:07:39;;;;;;;12.90;7.80;;;;;;;21.88;75.28;94910.78;4982558;28;20578;-78
2023/08/22 00:10:07;;;;;;;12.75;8.05;;;;;;;21.87;75.33;94919.44;4991584;28;20645;-78
2023/08/22 00:12:34;;;;;;;13.48;8.85;;;;;;;21.75;75.93;94911.56;4979796;28;20233;-77
2023/08/22 00:15:00;;;;;;;16.35;7.82;;;;;;;21.67;75.88;94912.75;4982016;28;20338;-78
2023/08/22 00:17:27;;;;;;;10.90;7.28;;;;;;;21.62;75.79;94914.69;4989991;28;20301;-78
2023/08/22 00:19:54;;;;;;;14.13;7.72;;;;;;;21.55;76.64;94919.41;4990598;28;20212;-77
2023/08/22 00:22:21;;;;;;;11.43;8.05;;;;;;;21.52;76.59;94920.19;4983431;28;20220;-78
2023/08/22 00:24:49;;;;;;;13.02;7.88;;;;;;;21.50;76.72;94917.03;4984499;28;20647;-78
2023/08/22 00:27:16;;;;;;;11.40;7.95;;;;;;;21.38;78.20;94907.16;4983791;28;20301;-78
2023/08/22 00:29:43;;;;;;;14.95;8.57;;;;;;;21.32;78.65;94899.69;4978260;28;20238;-77
2023/08/22 00:32:09;;;;;;;12.07;7.85;;;;;;;21.23;78.92;94902.78;4985420;28;20229;-78
2023/08/22 00:34:36;;;;;;;13.43;7.90;;;;;;;21.19;79.33;94902.75;4986106;28;20550;-78
2023/08/22 00:37:03;;;;;;;10.35;7.40;;;;;;;21.24;78.44;94907.13;4975195;28;20312;-78
2023/08/22 00:39:30;;;;;;;10.32;8.18;;;;;;;21.32;77.55;94899.69;4980368;28;20207;-78
2023/08/22 00:41:58;;;;;;;10.43;7.60;;;;;;;21.33;77.46;94901.22;4987533;28;20209;-77
2023/08/22 00:44:25;;;;;;;10.13;7.85;;;;;;;21.36;77.89;94900.47;4989669;28;20294;-77
2023/08/22 00:46:52;;;;;;;11.85;8.05;;;;;;;21.30;78.44;94913.06;4977500;28;20202;-78
2023/08/22 00:49:19;;;;;;;11.57;7.68;;;;;;;21.36;77.12;94905.97;4983539;28;20222;-78
2023/08/22 00:51:46;;;;;;;11.45;8.45;;;;;;;21.38;76.91;94906.38;4989746;28;20213;-78
2023/08/22 00:54:13;;;;;;;11.77;8.07;;;;;;;21.27;78.85;94909.91;4979212;28;20206;-78
2023/08/22 00:56:41;;;;;;;9.45;7.25;;;;;;;21.24;78.55;94915.38;4982248;28;20220;-77
2023/08/22 00:59:10;;;;;;;9.30;6.80;;;;;;;21.28;77.76;94908.72;4988594;28;20210;-78
2023/08/22 01:01:37;;;;;;;11.77;7.18;;;;;;;21.19;77.65;94900.00;4980462;28;20217;-78
2023/08/22 01:04:04;;;;;;;10.55;7.85;;;;;;;21.21;77.30;94905.94;4979517;28;20210;-78
2023/08/22 01:06:40;;;;;;;13.45;7.72;;;;;;;21.23;75.45;94903.56;4983216;28;20206;-78
2023/08/22 01:09:17;;;;;;;9.43;7.07;;;;;;;21.26;77.34;94905.56;4990618;28;20288;-78
2023/08/22 01:11:48;;;;;;;8.30;7.18;;;;;;;21.24;75.63;94905.16;4981210;28;20209;-78
2023/08/22 01:14:22;;;;;;;10.88;7.75;;;;;;;21.23;77.34;94903.56;4984351;28;20252;-78
2023/08/22 01:16:49;;;;;;;11.73;7.75;;;;;;;21.16;77.72;94908.25;4987743;28;20291;-78
2023/08/22 01:19:18;;;;;;;10.80;8.05;;;;;;;21.11;77.02;94903.91;4990096;28;20801;-78
2023/08/22 01:21:50;;;;;;;13.77;8.57;;;;;;;21.17;77.04;94907.88;4983046;28;20292;-78
2023/08/22 01:24:17;;;;;;;11.25;9.00;;;;;;;21.13;76.25;94915.31;4992889;28;20304;-78
2023/08/22 01:26:46;;;;;;;12.80;9.07;;;;;;;21.14;76.31;94907.84;4994251;28;20207;-78
2023/08/22 01:29:19;;;;;;;11.98;7.93;;;;;;;21.00;77.48;94905.81;4979048;28;20216;-78
2023/08/22 01:31:52;;;;;;;10.45;7.20;;;;;;;21.11;77.13;94901.16;4986549;28;20202;-78
2023/08/22 01:34:23;;;;;;;12.35;8.32;;;;;;;21.20;77.39;94906.31;4992387;28;20202;-77
2023/08/22 01:36:54;;;;;;;10.55;7.53;;;;;;;21.06;78.40;94898.75;4978968;28;20198;-78
2023/08/22 01:39:23;;;;;;;9.82;7.30;;;;;;;20.90;77.39;94906.59;4984742;28;20236;-78
2023/08/22 01:41:50;;;;;;;13.35;8.07;;;;;;;20.88;78.79;94911.69;4991557;28;20233;-78
2023/08/22 01:44:17;;;;;;;12.40;8.23;;;;;;;20.89;78.80;94916.00;4981993;28;20217;-78
2023/08/22 01:46:44;;;;;;;10.43;8.00;;;;;;;20.92;79.11;94916.00;4981334;28;20257;-77
2023/08/22 01:49:11;;;;;;;15.25;7.80;;;;;;;20.90;79.02;94917.59;4987799;28;20614;-78
2023/08/22 01:51:38;;;;;;;14.05;8.73;;;;;;;20.90;78.96;94914.84;4993627;28;20206;-78
2023/08/22 01:54:06;;;;;;;10.23;7.72;;;;;;;20.83;79.39;94923.84;4983222;28;20213;-78
2023/08/22 01:56:33;;;;;;;9.50;7.55;;;;;;;20.82;78.49;94916.75;4986853;28;20571;-79
2023/08/22 01:59:00;;;;;;;12.02;7.50;;;;;;;20.84;79.00;94919.13;4992751;28;20276;-78
2023/08/22 02:01:27;;;;;;;12.00;7.95;;;;;;;20.84;78.80;94916.38;4995728;28;20240;-79
2023/08/22 02:03:54;;;;;;;13.25;8.10;;;;;;;20.84;78.44;94921.88;4985598;28;20250;-79
2023/08/22 02:06:20;;;;;;;8.38;7.10;;;;;;;20.84;79.17;94914.41;4988051;28;20205;-79
2023/08/22 02:08:47;;;;;;;11.18;7.90;;;;;;;20.74;79.10;94903.34;4991135;28;20205;-79
2023/08/22 02:11:16;;;;;;;10.38;7.82;;;;;;;20.72;80.39;94905.69;4986890;28;20222;-77
2023/08/22 02:13:43;;;;;;;10.40;8.35;;;;;;;20.70;80.24;94916.28;4984258;28;20248;-76
2023/08/22 02:16:10;;;;;;;15.65;8.50;;;;;;;20.65;80.82;94911.94;4990055;28;20284;-77
2023/08/22 02:18:36;;;;;;;11.13;8.00;;;;;;;20.63;80.84;94925.31;4991702;28;20210;-77
2023/08/22 02:21:03;;;;;;;10.82;7.90;;;;;;;20.62;81.20;94911.94;4993640;28;20217;-77
2023/08/22 02:23:32;;;;;;;13.77;8.80;;;;;;;20.62;81.29;94911.94;4989117;28;20209;-77
2023/08/22 02:25:59;;;;;;;11.50;8.32;;;;;;;20.58;81.32;94917.41;4991833;28;20221;-77
2023/08/22 02:28:27;;;;;;;10.15;8.23;;;;;;;20.52;80.23;94916.97;4986108;28;20215;-77
2023/08/22 02:30:57;;;;;;;9.85;7.63;;;;;;;20.53;81.10;94915.81;4988670;28;20293;-77
2023/08/22 02:33:24;;;;;;;8.95;7.22;;;;;;;20.52;80.55;94914.22;4989968;28;20296;-78
2023/08/22 02:35:51;;;;;;;12.05;7.95;;;;;;;20.54;80.38;94917.38;4980876;28;20226;-77
2023/08/22 02:38:17;;;;;;;10.57;8.25;;;;;;;20.53;80.31;94915.00;4982694;28;20364;-78
2023/08/22 02:40:45;;;;;;;9.98;7.55;;;;;;;20.58;81.16;94918.19;4982446;28;20522;-77
2023/08/22 02:43:12;;;;;;;12.80;8.40;;;;;;;20.55;79.40;94916.22;4992206;28;20312;-77
2023/08/22 02:45:40;;;;;;;12.10;7.82;;;;;;;20.58;80.34;94914.66;4983247;28;20210;-77
2023/08/22 02:48:07;;;;;;;12.98;7.90;;;;;;;20.43;80.47;94926.75;4988089;28;20239;-77
2023/08/22 02:50:34;;;;;;;10.95;8.02;;;;;;;20.43;81.24;94922.03;4986800;28;20578;-77
2023/08/22 02:53:01;;;;;;;13.90;8.43;;;;;;;20.37;81.37;94929.06;4987860;28;20222;-77
2023/08/22 02:55:27;;;;;;;10.27;8.05;;;;;;;20.29;81.99;94932.91;4978663;28;20629;-78
2023/08/22 02:57:54;;;;;;;14.27;8.90;;;;;;;20.27;82.19;94928.97;4992963;28;20214;-77
2023/08/22 03:00:21;;;;;;;15.07;8.48;;;;;;;20.33;81.12;94922.72;4990537;28;20289;-78
2023/08/22 03:02:49;;;;;;;12.13;8.80;;;;;;;20.34;80.87;94924.31;4994407;28;20210;-77
2023/08/22 03:05:17;;;;;;;10.60;7.78;;;;;;;20.38;80.49;94925.13;4981073;28;20273;-77
2023/08/22 03:07:44;;;;;;;10.52;7.63;;;;;;;20.40;80.99;94927.50;4992823;28;20210;-77
2023/08/22 03:10:11;;;;;;;10.25;7.75;;;;;;;20.32;82.14;94937.66;4992539;28;20229;-77
2023/08/22 03:12:38;;;;;;;14.15;8.48;;;;;;;20.24;83.18;94939.56;4979705;28;20229;-77
2023/08/22 03:15:06;;;;;;;13.13;8.65;;;;;;;20.21;83.16;94940.34;4984807;28;20225;-77
2023/08/22 03:17:33;;;;;;;10.38;8.38;;;;;;;20.22;83.65;94932.88;4992090;28;20272;-77
2023/08/22 03:20:01;;;;;;;12.30;8.02;;;;;;;20.24;83.75;94930.50;4991832;28;20556;-77
2023/08/22 03:22:27;;;;;;;9.23;7.05;;;;;;;20.23;83.47;94931.69;4983325;28;20217;-77
2023/08/22 03:24:54;;;;;;;11.90;8.43;;;;;;;20.19;83.82;94933.63;4986535;28;20253;-77
2023/08/22 03:27:21;;;;;;;11.93;8.65;;;;;;;20.21;83.42;94950.56;4984432;28;20209;-77
2023/08/22 03:29:48;;;;;;;10.40;7.43;;;;;;;20.14;83.29;94947.72;4979883;28;20217;-77
2023/08/22 03:32:15;;;;;;;13.48;9.00;;;;;;;20.03;82.93;94952.34;4986178;28;20234;-77
2023/08/22 03:34:42;;;;;;;10.30;8.38;;;;;;;20.04;82.38;94948.44;4986522;28;20921;-77
2023/08/22 03:37:10;;;;;;;13.88;8.05;;;;;;;20.15;82.00;94939.09;4976209;28;20210;-77
2023/08/22 03:39:37;;;;;;;11.98;8.63;;;;;;;20.28;82.42;94942.34;4982781;28;20604;-77
2023/08/22 03:42:04;;;;;;;12.65;7.95;;;;;;;20.21;81.70;94947.81;4988091;28;20213;-77
2023/08/22 03:44:31;;;;;;;15.25;9.13;;;;;;;20.27;81.97;94950.97;4989792;28;20209;-77
2023/08/22 03:46:58;;;;;;;12.68;7.32;;;;;;;20.36;80.64;94949.53;4978555;28;20207;-77
2023/08/22 03:49:25;;;;;;;10.35;8.27;;;;;;;20.42;80.49;94952.69;4985398;28;20216;-77
2023/08/22 03:51:52;;;;;;;25.35;13.57;;;;;;;20.56;81.15;94947.28;4988923;28;20229;-77
2023/08/22 03:54:20;;;;;;;16.55;10.48;;;;;;;20.51;82.10;94942.13;4980019;28;20205;-77
2023/08/22 03:56:47;;;;;;;12.68;8.68;;;;;;;20.48;81.51;94935.44;4991320;28;20213;-77
2023/08/22 03:59:13;;;;;;;13.85;8.52;;;;;;;20.54;81.15;94944.91;4988672;28;20876;-77
2023/08/22 04:01:40;;;;;;;12.05;8.93;;;;;;;20.71;81.04;94945.41;4981279;28;20213;-77
2023/08/22 04:04:07;;;;;;;21.05;9.00;;;;;;;20.83;81.13;94947.84;4979956;28;20209;-78
2023/08/22 04:06:34;;;;;;;11.25;8.52;;;;;;;21.23;79.55;94942.16;4983158;28;20217;-77
2023/08/22 04:09:01;;;;;;;16.85;9.25;;;;;;;21.66;77.77;94947.81;4989416;28;20224;-80
2023/08/22 04:11:29;;;;;;;17.10;9.20;;;;;;;21.97;76.87;94946.28;4982493;28;20284;-77
2023/08/22 04:13:56;;;;;;;14.20;9.07;;;;;;;22.35;75.02;94933.69;4983433;28;20237;-77
2023/08/22 04:16:23;;;;;;;14.73;8.90;;;;;;;22.82;73.70;94940.78;4987101;28;20205;-77
2023/08/22 04:18:49;;;;;;;15.75;9.02;;;;;;;23.20;72.10;94941.84;4990230;28;20201;-77
2023/08/22 04:21:16;;;;;;;12.70;8.45;;;;;;;23.87;70.18;94942.72;4984192;28;20207;-78
2023/08/22 04:23:43;;;;;;;12.75;9.68;;;;;;;24.52;67.80;94936.28;4982926;28;20206;-77
2023/08/22 04:26:10;;;;;;;11.63;10.40;;;;;;;25.07;65.75;94936.16;4988536;28;20214;-77
2023/08/22 04:28:39;;;;;;;15.25;9.50;;;;;;;25.75;63.79;94943.69;4977025;28;20574;-77
2023/08/22 04:31:05;;;;;;;14.55;10.35;;;;;;;26.35;61.62;94939.25;4979386;28;20226;-77
2023/08/22 04:33:32;;;;;;;14.55;10.13;;;;;;;26.75;60.12;94940.94;4988734;28;20220;-77
2023/08/22 04:35:59;;;;;;;17.15;10.35;;;;;;;27.07;58.89;94950.72;4978337;28;20668;-78
2023/08/22 04:38:26;;;;;;;13.00;10.23;;;;;;;27.12;58.23;94947.44;4990895;28;20638;-78
2023/08/22 04:40:52;;;;;;;13.88;11.15;;;;;;;27.24;57.73;94950.38;4982974;28;20206;-78
2023/08/22 04:43:19;;;;;;;13.68;10.35;;;;;;;26.91;58.40;94951.41;4999217;28;20212;-79
2023/08/22 04:45:51;;;;;;;14.75;9.82;;;;;;;26.22;59.95;94957.69;4996174;28;20209;-79
2023/08/22 04:48:18;;;;;;;13.02;9.70;;;;;;;26.88;58.78;94953.03;4991971;28;20300;-79
2023/08/22 04:50:44;;;;;;;12.00;9.63;;;;;;;27.56;56.91;94949.78;4986313;28;20226;-77
2023/08/22 04:53:11;;;;;;;13.68;10.00;;;;;;;27.92;55.08;94949.00;4984957;28;20225;-79
2023/08/22 04:55:38;;;;;;;13.02;9.70;;;;;;;27.76;56.54;94957.31;4979578;28;20667;-78
2023/08/22 04:58:05;;;;;;;11.73;9.93;;;;;;;27.79;56.12;94967.59;4991521;28;20217;-79
2023/08/22 05:00:32;;;;;;;13.05;10.10;;;;;;;28.11;56.05;94964.88;4989526;28;20197;-78
2023/08/22 05:03:00;;;;;;;13.73;9.82;;;;;;;28.65;54.02;94967.22;4990935;28;20225;-78
2023/08/22 05:05:27;;;;;;;15.32;10.70;;;;;;;28.25;54.68;94959.03;4988978;28;20231;-79
2023/08/22 05:07:54;;;;;;;13.05;10.00;;;;;;;27.46;55.96;94975.81;4998333;28;20210;-79
2023/08/22 05:10:20;;;;;;;12.98;10.80;;;;;;;27.58;56.51;94964.06;4991146;28;20673;-78
2023/08/22 05:12:47;;;;;;;12.85;10.25;;;;;;;28.40;53.90;94967.06;4981338;28;20241;-78
2023/08/22 05:15:14;;;;;;;13.77;9.75;;;;;;;30.04;49.77;94964.28;4987824;28;20201;-78
2023/08/22 05:17:41;;;;;;;16.70;10.10;;;;;;;30.77;47.78;94948.38;4991555;28;20217;-79
2023/08/22 05:20:13;;;;;;;13.40;9.60;;;;;;;31.34;46.64;94954.84;4972750;28;20210;-78
2023/08/22 05:22:40;;;;;;;12.88;10.93;;;;;;;31.24;46.09;94954.00;4988344;28;20853;-78
2023/08/22 05:25:07;;;;;;;16.98;11.90;;;;;;;31.38;46.21;94961.09;4987463;28;20206;-78
2023/08/22 05:27:34;;;;;;;12.73;10.73;;;;;;;31.81;45.74;94959.56;4980887;28;20301;-79
2023/08/22 05:30:01;;;;;;;13.70;11.05;;;;;;;32.18;43.77;94960.56;4980686;28;20213;-79
2023/08/22 05:32:28;;;;;;;14.82;10.07;;;;;;;31.77;44.85;94962.50;4984450;28;20230;-78
2023/08/22 05:34:55;;;;;;;18.58;11.82;;;;;;;31.61;45.05;94966.25;4984696;28;20210;-78
2023/08/22 05:37:23;;;;;;;13.13;10.60;;;;;;;32.65;43.29;94957.50;4974887;28;20205;-78
2023/08/22 05:39:50;;;;;;;14.82;11.23;;;;;;;32.56;42.99;94960.25;4986426;28;20563;-78
2023/08/22 05:42:17;;;;;;;14.20;10.80;;;;;;;33.10;42.49;94966.03;4986541;28;20289;-78
2023/08/22 05:44:44;;;;;;;15.30;10.82;;;;;;;33.30;41.70;94962.81;4993436;28;20646;-78
2023/08/22 05:47:12;;;;;;;18.80;12.00;;;;;;;32.19;43.25;94962.94;4995728;28;20544;-78
2023/08/22 05:49:38;;;;;;;17.73;12.13;;;;;;;32.94;42.37;94962.75;4998045;28;20209;-77
2023/08/22 05:52:06;;;;;;;15.90;11.68;;;;;;;33.93;40.46;94964.03;4997021;28;20225;-77
2023/08/22 05:54:34;;;;;;;17.88;11.07;;;;;;;34.49;39.75;94954.97;4999068;28;20197;-77
2023/08/22 05:57:02;;;;;;;16.00;12.20;;;;;;;34.03;40.29;94962.75;4994946;28;20602;-78
2023/08/22 05:59:29;;;;;;;17.58;11.32;;;;;;;33.67;41.08;94963.59;4992904;28;20220;-78
2023/08/22 06:01:56;;;;;;;16.25;11.02;;;;;;;33.55;41.24;94961.72;4988458;28;20245;-77
2023/08/22 06:04:23;;;;;;;17.73;11.82;;;;;;;33.64;40.95;94958.91;4996619;28;20202;-78
2023/08/22 06:06:51;;;;;;;12.98;11.13;;;;;;;33.78;40.69;94957.50;4997055;28;20208;-78
2023/08/22 06:09:18;;;;;;;13.98;11.27;;;;;;;32.74;42.28;94961.13;5001395;28;20229;-78
2023/08/22 06:11:46;;;;;;;15.43;11.07;;;;;;;34.08;40.75;94948.06;4982514;28;20234;-78
2023/08/22 06:14:13;;;;;;;14.48;10.80;;;;;;;34.72;39.61;94956.28;4990003;28;20242;-80
2023/08/22 06:16:40;;;;;;;15.02;10.38;;;;;;;35.56;38.26;94941.19;4992061;28;20221;-79
2023/08/22 06:19:07;;;;;;;13.90;10.98;;;;;;;35.97;37.27;94945.84;4993300;28;20225;-78
2023/08/22 06:21:35;;;;;;;17.70;10.63;;;;;;;35.42;37.92;94945.53;4992555;28;20197;-77
2023/08/22 06:24:02;;;;;;;13.52;11.35;;;;;;;34.62;39.26;94951.16;4994583;28;20231;-77
2023/08/22 06:26:29;;;;;;;16.55;10.82;;;;;;;35.66;37.85;94939.09;4991887;28;20300;-78
2023/08/22 06:28:57;;;;;;;11.90;10.27;;;;;;;36.11;36.73;94943.50;4993668;28;20257;-78
2023/08/22 06:31:24;;;;;;;13.60;10.80;;;;;;;36.05;37.33;94940.59;4993507;28;20230;-77
2023/08/22 06:33:51;;;;;;;12.52;10.85;;;;;;;36.11;36.31;94943.50;4991789;28;20213;-77
2023/08/22 06:36:18;;;;;;;13.55;11.13;;;;;;;36.51;36.30;94948.53;4988908;28;20210;-79
2023/08/22 06:38:45;;;;;;;15.63;11.45;;;;;;;35.91;37.09;94947.78;4995556;28;20210;-79
2023/08/22 06:41:12;;;;;;;18.52;12.27;;;;;;;33.67;40.74;94951.56;4990837;28;20207;-79
2023/08/22 06:43:39;;;;;;;15.82;11.00;;;;;;;34.18;40.02;94954.44;4978206;28;20566;-80
2023/08/22 06:46:07;;;;;;;16.10;12.30;;;;;;;34.35;39.77;94955.66;4988417;28;20236;-78
2023/08/22 06:48:34;;;;;;;13.38;11.10;;;;;;;34.81;39.23;94961.13;4992099;28;20209;-79
2023/08/22 06:51:01;;;;;;;14.65;11.00;;;;;;;34.32;39.85;94953.78;4993431;28;20236;-78
2023/08/22 06:53:27;;;;;;;17.98;10.00;;;;;;;33.99;40.60;94961.38;4988166;28;20617;-79
2023/08/22 06:55:55;;;;;;;14.10;9.70;;;;;;;35.51;38.62;94953.16;4991658;28;20239;-78
2023/08/22 06:58:22;;;;;;;13.43;10.50;;;;;;;35.47;38.25;94952.56;4991368;28;20205;-79
2023/08/22 07:00:52;;;;;;;12.10;10.80;;;;;;;35.11;38.44;94948.72;4991431;28;20194;-80
2023/08/22 07:03:20;;;;;;;14.48;10.40;;;;;;;34.51;39.66;94954.50;4990917;28;20542;-79
2023/08/22 07:05:52;;;;;;;11.95;10.32;;;;;;;34.89;39.29;94954.66;4989963;28;20252;-79
2023/08/22 07:08:19;;;;;;;17.13;9.93;;;;;;;35.13;39.03;94934.94;4991432;28;20209;-78
2023/08/22 07:10:46;;;;;;;11.35;9.43;;;;;;;35.60;38.32;94950.25;4980314;28;20547;-78
2023/08/22 07:13:13;;;;;;;14.30;10.13;;;;;;;36.60;36.60;94935.09;4992026;28;20252;-79
2023/08/22 07:15:39;;;;;;;12.30;10.57;;;;;;;35.32;38.27;94934.81;4988761;28;20213;-78
2023/08/22 07:18:06;;;;;;;11.75;10.20;;;;;;;34.19;40.30;94947.56;4990718;28;20206;-78
2023/08/22 07:20:34;;;;;;;14.18;10.43;;;;;;;34.99;38.62;94941.28;4991986;28;20213;-77
2023/08/22 07:23:01;;;;;;;13.32;9.77;;;;;;;36.09;36.43;94926.28;4989150;28;20260;-77
2023/08/22 07:25:28;;;;;;;14.70;10.85;;;;;;;35.50;38.05;94934.69;4990674;28;20202;-78
2023/08/22 07:27:56;;;;;;;10.70;9.70;;;;;;;35.01;38.42;94933.13;4987307;28;20206;-78
2023/08/22 07:30:23;;;;;;;15.20;10.73;;;;;;;32.69;42.84;94935.66;4989316;28;20205;-78
2023/08/22 07:32:49;;;;;;;11.45;10.35;;;;;;;33.07;42.05;94938.13;4991108;28;20233;-77
2023/08/22 07:35:16;;;;;;;17.42;10.75;;;;;;;33.69;41.29;94932.97;4989162;28;20297;-78
2023/08/22 07:37:44;;;;;;;14.65;10.63;;;;;;;33.26;41.75;94933.31;4990518;28;20703;-77
2023/08/22 07:40:12;;;;;;;13.35;9.98;;;;;;;34.20;40.36;94926.63;4990352;28;20205;-78
2023/08/22 07:42:38;;;;;;;15.43;10.35;;;;;;;33.41;41.79;94934.25;4989877;28;20204;-78
2023/08/22 07:45:07;;;;;;;11.20;10.00;;;;;;;33.48;42.37;94933.94;4989208;28;20205;-78
2023/08/22 07:47:34;;;;;;;14.30;10.20;;;;;;;33.24;42.19;94930.16;4982138;28;20586;-79
2023/08/22 07:50:01;;;;;;;11.00;9.68;;;;;;;33.35;41.50;94931.28;4971449;28;20221;-77
2023/08/22 07:52:28;;;;;;;14.30;9.90;;;;;;;33.32;42.03;94928.66;4974702;28;20694;-76
2023/08/22 07:55:17;;;;;;;12.65;9.43;;;;;;;34.12;40.90;94931.03;4982522;28;20233;-79
2023/08/22 07:57:44;;;;;;;15.20;10.48;;;;;;;33.62;41.04;94922.06;4977473;28;20220;-77
2023/08/22 08:00:13;;;;;;;14.00;10.00;;;;;;;33.48;41.37;94928.34;4982357;28;20209;-77
2023/08/22 08:02:40;;;;;;;13.57;9.88;;;;;;;33.06;41.26;94931.72;4979618;28;20209;-76
2023/08/22 08:05:16;;;;;;;11.35;9.82;;;;;;;33.43;41.35;94931.75;4976103;28;20245;-76
2023/08/22 08:07:43;;;;;;;13.35;10.10;;;;;;;33.55;40.32;94928.00;4982824;28;20220;-77
2023/08/22 08:10:12;;;;;;;10.63;9.38;;;;;;;32.87;41.35;94930.13;4988879;28;20206;-78
2023/08/22 08:12:39;;;;;;;11.38;9.27;;;;;;;32.07;42.15;94930.13;4999995;28;20312;-78
2023/08/22 08:15:07;;;;;;;13.75;9.63;;;;;;;32.67;41.92;94929.75;4994048;28;20593;-77
2023/08/22 08:17:33;;;;;;;13.00;9.30;;;;;;;32.24;42.38;94928.69;4991516;28;20205;-78
2023/08/22 08:20:00;;;;;;;14.80;9.48;;;;;;;32.46;42.54;94923.78;4991205;28;20226;-78
2023/08/22 08:22:27;;;;;;;11.23;9.40;;;;;;;32.39;41.92;94928.91;4992043;28;20205;-79
2023/08/22 08:24:54;;;;;;;11.32;9.27;;;;;;;32.26;42.63;94925.41;4991532;28;20217;-79
2023/08/22 08:27:22;;;;;;;13.57;9.45;;;;;;;31.91;42.35;94921.94;4991673;28;20210;-78
2023/08/22 08:29:49;;;;;;;11.68;8.98;;;;;;;31.59;43.06;94923.13;4994892;28;20220;-79
2023/08/22 08:32:16;;;;;;;11.55;8.23;;;;;;;31.96;42.06;94930.56;5000495;28;20244;-78
2023/08/22 08:34:43;;;;;;;9.57;8.55;;;;;;;31.88;42.60;94928.47;4991427;28;20210;-79
2023/08/22 08:37:09;;;;;;;11.88;8.82;;;;;;;32.31;42.44;94934.00;4991294;28;20209;-79
2023/08/22 08:39:36;;;;;;;15.35;9.63;;;;;;;31.59;43.25;94923.13;4990728;28;20216;-79
2023/08/22 08:42:08;;;;;;;13.95;9.77;;;;;;;31.98;43.25;94921.69;4991345;28;20212;-78
2023/08/22 08:44:37;;;;;;;14.50;10.20;;;;;;;31.75;43.56;94922.94;4990435;28;20217;-79
2023/08/22 08:47:05;;;;;;;11.05;9.65;;;;;;;31.43;43.65;94924.88;4991833;28;20210;-78
2023/08/22 08:49:34;;;;;;;11.20;8.65;;;;;;;31.97;41.91;94920.13;4972566;28;20217;-78
2023/08/22 08:52:03;;;;;;;10.50;8.32;;;;;;;32.40;40.48;94914.38;4991407;28;20234;-79
2023/08/22 08:54:30;;;;;;;10.60;7.55;;;;;;;32.57;39.47;94914.13;4991594;28;20236;-78
2023/08/22 08:56:56;;;;;;;11.82;7.85;;;;;;;32.25;40.19;94913.44;4991602;28;20210;-78
2023/08/22 08:59:24;;;;;;;7.78;7.00;;;;;;;32.62;38.87;94907.91;4990161;28;20214;-79
2023/08/22 09:01:52;;;;;;;10.88;7.85;;;;;;;31.95;39.82;94911.38;4990760;28;20194;-79
2023/08/22 09:04:19;;;;;;;11.35;8.35;;;;;;;31.96;39.98;94919.34;4990925;28;20202;-78
2023/08/22 09:06:47;;;;;;;10.85;8.18;;;;;;;31.99;40.88;94907.19;4991523;28;20217;-79
2023/08/22 09:09:15;;;;;;;11.60;7.60;;;;;;;32.70;39.93;94914.78;4990866;28;20206;-78
2023/08/22 09:11:43;;;;;;;11.40;7.20;;;;;;;32.20;38.80;94922.44;4991357;28;20264;-78
2023/08/22 09:14:10;;;;;;;12.75;7.70;;;;;;;32.66;39.35;94908.56;4990729;28;20245;-79
2023/08/22 09:16:38;;;;;;;14.52;7.90;;;;;;;32.77;38.42;94904.09;4990963;28;20300;-80
2023/08/22 09:19:07;;;;;;;11.55;7.18;;;;;;;33.31;37.92;94893.38;4990620;28;20240;-79
2023/08/22 09:21:34;;;;;;;11.25;7.78;;;;;;;33.19;38.39;94895.06;4991366;28;20210;-78
2023/08/22 09:24:08;;;;;;;7.10;6.38;;;;;;;32.57;36.18;94888.88;4991075;28;20216;-78
2023/08/22 09:26:36;;;;;;;10.18;6.20;;;;;;;32.66;36.41;94891.72;4991024;28;20623;-79
2023/08/22 09:29:06;;;;;;;10.30;6.03;;;;;;;32.96;35.87;94888.03;4990675;28;20225;-78
2023/08/22 09:31:35;;;;;;;11.13;6.75;;;;;;;33.18;36.45;94899.91;4990463;28;20214;-79
2023/08/22 09:34:09;;;;;;;9.82;6.03;;;;;;;33.64;33.63;94891.44;4990560;28;20214;-79
2023/08/22 09:36:44;;;;;;;6.03;5.43;;;;;;;33.96;33.38;94889.22;4990587;28;20209;-79
2023/08/22 09:39:13;;;;;;;8.30;6.22;;;;;;;34.18;34.58;94878.50;4990568;28;20296;-79
2023/08/22 09:41:41;;;;;;;9.60;6.40;;;;;;;34.05;34.29;94875.88;4990887;28;20578;-79
2023/08/22 09:44:10;;;;;;;7.45;6.65;;;;;;;34.12;34.46;94874.78;4990535;28;20237;-80
2023/08/22 09:46:39;;;;;;;8.35;6.60;;;;;;;34.62;34.47;94855.47;4990312;28;20205;-80
2023/08/22 09:49:11;;;;;;;10.07;6.65;;;;;;;34.71;33.97;94866.69;4990625;28;20210;-79
2023/08/22 09:51:39;;;;;;;9.38;6.90;;;;;;;34.06;33.84;94876.66;4994083;28;20292;-79
2023/08/22 09:54:07;;;;;;;9.43;5.90;;;;;;;34.14;33.81;94872.28;4994483;28;20694;-79
2023/08/22 09:56:34;;;;;;;10.18;5.43;;;;;;;33.68;32.32;94868.81;4994377;28;20219;-79
2023/08/22 09:59:02;;;;;;;5.22;4.72;;;;;;;34.25;30.39;94858.47;4994383;28;20217;-79
2023/08/22 10:01:30;;;;;;;9.45;5.45;;;;;;;34.10;31.61;94860.41;4994104;28;20209;-79
2023/08/22 10:03:59;;;;;;;8.60;5.68;;;;;;;33.86;31.90;94858.31;4994299;28;20213;-79
2023/08/22 10:06:30;;;;;;;13.57;6.07;;;;;;;33.53;33.04;94858.22;4994820;28;20692;-78
2023/08/22 10:08:59;;;;;;;8.07;5.90;;;;;;;33.06;33.57;94853.09;4994114;28;20643;-78
2023/08/22 10:11:29;;;;;;;8.50;5.82;;;;;;;32.47;34.53;94858.00;4993931;28;20297;-78
2023/08/22 10:13:56;;;;;;;8.38;6.28;;;;;;;33.06;34.32;94846.72;4992281;28;20674;-78
2023/08/22 10:16:22;;;;;;;6.47;5.70;;;;;;;33.79;33.82;94847.41;4993895;28;20224;-79
2023/08/22 10:19:00;;;;;;;9.23;6.18;;;;;;;33.22;33.58;94845.59;4993767;28;20217;-77
2023/08/22 10:21:32;;;;;;;8.13;5.25;;;;;;;32.64;33.87;94843.69;4993500;28;20936;-78
2023/08/22 10:23:59;;;;;;;10.68;5.65;;;;;;;32.57;34.51;94844.00;4994190;28;20873;-77
2023/08/22 10:26:48;;;;;;;7.47;5.78;;;;;;;33.14;33.67;94842.31;5001456;28;20216;-79
2023/08/22 10:29:17;;;;;;;8.02;5.63;;;;;;;33.43;33.51;94836.25;4994192;28;20678;-79
2023/08/22 10:32:21;;;;;;;7.13;5.75;;;;;;;33.07;34.36;94837.03;4994782;28;20727;-80
2023/08/22 10:35:27;;;;;;;8.15;6.25;;;;;;;32.22;34.71;94829.44;4994388;28;20217;-77
2023/08/22 10:37:57;;;;;;;6.38;5.72;;;;;;;32.64;34.62;94833.25;4990207;28;20213;-77
2023/08/22 10:40:32;;;;;;;6.65;5.82;;;;;;;32.66;34.25;94830.00;4993053;28;20296;-79
2023/08/22 10:43:13;;;;;;;8.05;5.93;;;;;;;33.29;33.39;94832.03;4993674;28;20577;-80
2023/08/22 10:45:49;;;;;;;9.35;6.22;;;;;;;33.78;33.59;94823.34;4993751;28;20264;-80
2023/08/22 10:48:18;;;;;;;7.28;5.72;;;;;;;33.37;33.17;94824.84;4993889;28;20681;-78
2023/08/22 10:50:46;;;;;;;10.00;5.95;;;;;;;33.43;33.80;94825.00;4993892;28;20214;-78
2023/08/22 10:53:21;;;;;;;7.55;5.28;;;;;;;32.89;34.41;94826.59;4993797;28;20966;-79
2023/08/22 10:55:49;;;;;;;7.50;5.65;;;;;;;33.03;34.13;94820.34;4993703;28;20746;-78
2023/08/22 10:58:39;;;;;;;9.30;6.22;;;;;;;33.11;34.29;94815.97;4993743;28;20221;-78
2023/08/22 11:01:07;;;;;;;6.32;5.60;;;;;;;32.80;34.20;94818.94;4992490;28;20633;-81
2023/08/22 11:03:34;;;;;;;6.70;5.65;;;;;;;32.69;34.41;94823.41;4993734;28;20565;-80
2023/08/22 11:06:01;;;;;;;8.23;6.57;;;;;;;32.67;34.42;94814.69;4993126;28;20209;-80
2023/08/22 11:08:30;;;;;;;8.07;6.10;;;;;;;32.63;34.64;94820.47;4993117;28;20276;-78
2023/08/22 11:10:59;;;;;;;8.05;6.15;;;;;;;32.38;34.95;94824.34;4992909;28;20232;-79
2023/08/22 11:13:37;;;;;;;8.93;6.45;;;;;;;32.47;34.75;94818.72;4992771;28;20328;-78
2023/08/22 11:16:05;;;;;;;8.02;6.38;;;;;;;32.71;34.75;94818.13;4992913;28;20643;-79
2023/08/22 11:18:33;;;;;;;7.43;6.20;;;;;;;32.39;35.04;94817.47;4992022;28;20231;-78
2023/08/22 11:20:59;;;;;;;7.43;5.93;;;;;;;32.35;35.32;94818.88;4992550;28;20589;-78
2023/08/22 11:23:27;;;;;;;7.13;6.18;;;;;;;32.33;35.61;94819.34;4993078;28;20221;-79
2023/08/22 11:25:55;;;;;;;8.40;5.95;;;;;;;32.43;35.18;94818.09;4993041;28;20221;-79
2023/08/22 11:28:30;;;;;;;7.07;6.18;;;;;;;32.24;35.83;94816.53;4992793;28;20210;-79